sensor_id;sensor_type;location;lat;lon;timestamp;pressure;altitude;pressure_sealevel;temperature;humidity
68476;BME280;55464;48.266;14.188;2023-06-14T00:02:09;97321.81;;;16.75;44.12
68476;BME280;55464;48.266;14.188;2023-06-14T00:04:34;97331.75;;;16.72;44.02
68476;BME280;55464;48.266;14.188;2023-06-14T00:07:00;97327.78;;;16.66;44.17
68476;BME280;55464;48.266;14.188;2023-06-14T00:09:26;97331.34;;;16.67;45.36
68476;BME280;55464;48.266;14.188;2023-06-14T00:11:51;97332.53;;;16.58;45.21
68476;BME280;55464;48.266;14.188;2023-06-14T00:14:17;97330.16;;;16.50;45.12
68476;BME280;55464;48.266;14.188;2023-06-14T00:16:42;97333.31;;;16.48;46.38
68476;BME280;55464;48.266;14.188;2023-06-14T00:19:10;97330.53;;;16.41;46.48
68476;BME280;55464;48.266;14.188;2023-06-14T00:21:36;97333.28;;;16.37;47.07
68476;BME280;55464;48.266;14.188;2023-06-14T00:24:03;97325.38;;;16.36;47.12
68476;BME280;55464;48.266;14.188;2023-06-14T00:26:29;97323.34;;;16.29;47.33
68476;BME280;55464;48.266;14.188;2023-06-14T00:28:55;97326.91;;;16.19;47.15
68476;BME280;55464;48.266;14.188;2023-06-14T00:31:22;97308.19;;;16.09;47.52
68476;BME280;55464;48.266;14.188;2023-06-14T00:33:47;97308.97;;;15.98;48.04
68476;BME280;55464;48.266;14.188;2023-06-14T00:36:12;97324.44;;;15.96;48.21
68476;BME280;55464;48.266;14.188;2023-06-14T00:38:38;97310.09;;;15.86;47.87
68476;BME280;55464;48.266;14.188;2023-06-14T00:41:03;97314.09;;;15.85;48.52
68476;BME280;55464;48.266;14.188;2023-06-14T00:43:29;97326.38;;;15.84;49.15
68476;BME280;55464;48.266;14.188;2023-06-14T00:45:54;97321.19;;;15.83;48.57
68476;BME280;55464;48.266;14.188;2023-06-14T00:48:20;97320.00;;;15.77;48.81
68476;BME280;55464;48.266;14.188;2023-06-14T00:50:46;97320.34;;;15.72;48.95
68476;BME280;55464;48.266;14.188;2023-06-14T00:53:14;97303.69;;;15.72;48.82
68476;BME280;55464;48.266;14.188;2023-06-14T00:55:43;97310.75;;;15.62;49.00
68476;BME280;55464;48.266;14.188;2023-06-14T00:58:09;97312.75;;;15.61;49.36
68476;BME280;55464;48.266;14.188;2023-06-14T01:00:34;97308.81;;;15.62;49.31
68476;BME280;55464;48.266;14.188;2023-06-14T01:03:00;97310.34;;;15.60;49.84
68476;BME280;55464;48.266;14.188;2023-06-14T01:05:26;97306.41;;;15.57;49.81
68476;BME280;55464;48.266;14.188;2023-06-14T01:11:12;97319.84;;;15.48;50.35
68476;BME280;55464;48.266;14.188;2023-06-14T01:13:43;97313.84;;;15.46;50.38
68476;BME280;55464;48.266;14.188;2023-06-14T01:16:11;97311.09;;;15.49;50.79
68476;BME280;55464;48.266;14.188;2023-06-14T01:18:37;97307.91;;;15.44;50.95
68476;BME280;55464;48.266;14.188;2023-06-14T01:21:03;97313.06;;;15.42;50.96
68476;BME280;55464;48.266;14.188;2023-06-14T01:23:32;97317.81;;;15.41;51.04
68476;BME280;55464;48.266;14.188;2023-06-14T01:25:58;97323.00;;;15.43;51.34
68476;BME280;55464;48.266;14.188;2023-06-14T01:28:26;97313.84;;;15.42;51.30
68476;BME280;55464;48.266;14.188;2023-06-14T01:30:58;97323.75;;;15.40;51.69
68476;BME280;55464;48.266;14.188;2023-06-14T01:33:29;97326.53;;;15.40;50.83
68476;BME280;55464;48.266;14.188;2023-06-14T01:35:55;97315.84;;;15.45;50.24
68476;BME280;55464;48.266;14.188;2023-06-14T01:38:27;97323.03;;;15.50;50.57
68476;BME280;55464;48.266;14.188;2023-06-14T01:40:55;97314.69;;;15.50;50.25
68476;BME280;55464;48.266;14.188;2023-06-14T01:43:23;97319.91;;;15.59;49.93
68476;BME280;55464;48.266;14.188;2023-06-14T01:45:49;97304.41;;;15.58;49.79
68476;BME280;55464;48.266;14.188;2023-06-14T01:48:16;97311.50;;;15.48;50.33
68476;BME280;55464;48.266;14.188;2023-06-14T01:50:42;97310.69;;;15.44;50.52
68476;BME280;55464;48.266;14.188;2023-06-14T01:53:08;97315.44;;;15.43;50.63
68476;BME280;55464;48.266;14.188;2023-06-14T01:55:34;97318.63;;;15.49;50.74
68476;BME280;55464;48.266;14.188;2023-06-14T01:58:03;97323.03;;;15.54;50.79
68476;BME280;55464;48.266;14.188;2023-06-14T02:00:28;97317.88;;;15.52;50.41
68476;BME280;55464;48.266;14.188;2023-06-14T02:02:54;97323.06;;;15.57;50.75
68476;BME280;55464;48.266;14.188;2023-06-14T02:05:19;97320.28;;;15.57;50.82
68476;BME280;55464;48.266;14.188;2023-06-14T02:07:45;97307.53;;;15.49;50.93
68476;BME280;55464;48.266;14.188;2023-06-14T02:10:11;97326.22;;;15.56;51.00
68476;BME280;55464;48.266;14.188;2023-06-14T02:12:36;97321.41;;;15.49;50.99
68476;BME280;55464;48.266;14.188;2023-06-14T02:15:02;97321.03;;;15.50;50.93
68476;BME280;55464;48.266;14.188;2023-06-14T02:17:29;97322.63;;;15.48;51.23
68476;BME280;55464;48.266;14.188;2023-06-14T02:19:54;97326.56;;;15.43;51.27
68476;BME280;55464;48.266;14.188;2023-06-14T02:22:22;97332.50;;;15.42;50.99
68476;BME280;55464;48.266;14.188;2023-06-14T02:24:47;97313.41;;;15.37;51.41
68476;BME280;55464;48.266;14.188;2023-06-14T02:27:12;97311.78;;;15.32;51.10
68476;BME280;55464;48.266;14.188;2023-06-14T02:29:38;97312.22;;;15.30;51.28
68476;BME280;55464;48.266;14.188;2023-06-14T02:32:04;97331.25;;;15.36;51.02
68476;BME280;55464;48.266;14.188;2023-06-14T02:34:30;97340.78;;;15.35;51.12
68476;BME280;55464;48.266;14.188;2023-06-14T02:36:55;97328.03;;;15.30;51.27
68476;BME280;55464;48.266;14.188;2023-06-14T02:39:22;97323.69;;;15.25;51.11
68476;BME280;55464;48.266;14.188;2023-06-14T02:41:49;97335.97;;;15.28;51.14
68476;BME280;55464;48.266;14.188;2023-06-14T02:44:17;97335.97;;;15.28;51.26
68476;BME280;55464;48.266;14.188;2023-06-14T02:46:43;97338.72;;;15.24;51.57
68476;BME280;55464;48.266;14.188;2023-06-14T02:49:09;97335.94;;;15.21;51.65
68476;BME280;55464;48.266;14.188;2023-06-14T02:51:34;97343.06;;;15.18;51.50
68476;BME280;55464;48.266;14.188;2023-06-14T02:54:00;97333.91;;;15.14;51.50
68476;BME280;55464;48.266;14.188;2023-06-14T02:56:25;97336.66;;;15.10;52.09
68476;BME280;55464;48.266;14.188;2023-06-14T02:58:51;97332.63;;;15.01;52.18
68476;BME280;55464;48.266;14.188;2023-06-14T03:01:18;97332.59;;;14.97;52.38
68476;BME280;55464;48.266;14.188;2023-06-14T03:03:44;97321.41;;;14.90;53.33
68476;BME280;55464;48.266;14.188;2023-06-14T03:06:09;97332.06;;;14.81;53.20
68476;BME280;55464;48.266;14.188;2023-06-14T03:08:38;97333.31;;;14.87;53.17
68476;BME280;55464;48.266;14.188;2023-06-14T03:11:04;97331.31;;;14.87;53.03
68476;BME280;55464;48.266;14.188;2023-06-14T03:13:30;97323.75;;;14.84;52.96
68476;BME280;55464;48.266;14.188;2023-06-14T03:15:57;97328.94;;;14.86;53.49
68476;BME280;55464;48.266;14.188;2023-06-14T03:18:23;97328.50;;;14.80;53.54
68476;BME280;55464;48.266;14.188;2023-06-14T03:20:50;97330.84;;;14.78;54.07
68476;BME280;55464;48.266;14.188;2023-06-14T03:23:16;97318.84;;;14.67;54.39
68476;BME280;55464;48.266;14.188;2023-06-14T03:25:42;97334.34;;;14.68;54.55
68476;BME280;55464;48.266;14.188;2023-06-14T03:28:08;97333.03;;;14.58;55.55
68476;BME280;55464;48.266;14.188;2023-06-14T03:30:33;97332.56;;;14.52;55.42
68476;BME280;55464;48.266;14.188;2023-06-14T03:32:59;97325.41;;;14.51;55.86
68476;BME280;55464;48.266;14.188;2023-06-14T03:35:26;97333.72;;;14.51;56.06
68476;BME280;55464;48.266;14.188;2023-06-14T03:37:52;97336.50;;;14.51;55.47
68476;BME280;55464;48.266;14.188;2023-06-14T03:40:18;97336.47;;;14.48;55.71
68476;BME280;55464;48.266;14.188;2023-06-14T03:42:44;97347.59;;;14.51;55.66
68476;BME280;55464;48.266;14.188;2023-06-14T03:45:09;97354.78;;;14.56;55.40
68476;BME280;55464;48.266;14.188;2023-06-14T03:47:36;97349.34;;;14.63;54.15
68476;BME280;55464;48.266;14.188;2023-06-14T03:50:02;97346.97;;;14.65;54.13
68476;BME280;55464;48.266;14.188;2023-06-14T03:52:28;97358.53;;;14.71;53.94
68476;BME280;55464;48.266;14.188;2023-06-14T03:54:54;97360.13;;;14.72;54.17
68476;BME280;55464;48.266;14.188;2023-06-14T03:57:19;97366.09;;;14.78;54.14
68476;BME280;55464;48.266;14.188;2023-06-14T03:59:48;97363.72;;;14.76;54.99
68476;BME280;55464;48.266;14.188;2023-06-14T04:02:13;97368.88;;;14.78;54.38
68476;BME280;55464;48.266;14.188;2023-06-14T04:04:43;97382.72;;;14.74;54.84
68476;BME280;55464;48.266;14.188;2023-06-14T04:07:13;97381.91;;;14.70;55.81
68476;BME280;55464;48.266;14.188;2023-06-14T04:09:39;97388.69;;;14.76;54.59
68476;BME280;55464;48.266;14.188;2023-06-14T04:12:06;97388.25;;;14.74;55.09
68476;BME280;55464;48.266;14.188;2023-06-14T04:14:31;97395.06;;;14.80;54.54
68476;BME280;55464;48.266;14.188;2023-06-14T04:17:00;97383.59;;;14.82;54.39
68476;BME280;55464;48.266;14.188;2023-06-14T04:19:26;97388.41;;;14.88;54.43
68476;BME280;55464;48.266;14.188;2023-06-14T04:21:51;97386.00;;;14.83;54.49
68476;BME280;55464;48.266;14.188;2023-06-14T04:24:16;97391.59;;;14.90;54.27
68476;BME280;55464;48.266;14.188;2023-06-14T04:26:43;97389.56;;;14.84;55.62
68476;BME280;55464;48.266;14.188;2023-06-14T04:29:14;97405.81;;;14.85;55.96
68476;BME280;55464;48.266;14.188;2023-06-14T04:31:44;97401.03;;;14.82;56.10
68476;BME280;55464;48.266;14.188;2023-06-14T04:34:10;97394.72;;;14.85;55.57
68476;BME280;55464;48.266;14.188;2023-06-14T04:36:41;97398.66;;;14.84;56.53
68476;BME280;55464;48.266;14.188;2023-06-14T04:39:17;97406.22;;;14.87;56.78
68476;BME280;55464;48.266;14.188;2023-06-14T04:41:45;97407.91;;;14.96;56.97
68476;BME280;55464;48.266;14.188;2023-06-14T04:44:12;97406.31;;;14.98;55.83
68476;BME280;55464;48.266;14.188;2023-06-14T04:46:38;97412.69;;;15.02;55.08
68476;BME280;55464;48.266;14.188;2023-06-14T04:49:14;97412.34;;;15.07;55.35
68476;BME280;55464;48.266;14.188;2023-06-14T04:51:42;97404.03;;;15.11;55.68
68476;BME280;55464;48.266;14.188;2023-06-14T04:54:09;97413.22;;;15.15;56.82
68476;BME280;55464;48.266;14.188;2023-06-14T04:56:43;97407.31;;;15.20;57.94
68476;BME280;55464;48.266;14.188;2023-06-14T04:59:09;97413.28;;;15.22;58.67
68476;BME280;55464;48.266;14.188;2023-06-14T05:01:36;97420.03;;;15.25;58.30
68476;BME280;55464;48.266;14.188;2023-06-14T05:04:02;97412.91;;;15.24;57.46
68476;BME280;55464;48.266;14.188;2023-06-14T05:06:28;97410.88;;;15.21;57.98
68476;BME280;55464;48.266;14.188;2023-06-14T05:08:54;97420.44;;;15.27;58.70
68476;BME280;55464;48.266;14.188;2023-06-14T05:11:20;97420.44;;;15.27;57.73
68476;BME280;55464;48.266;14.188;2023-06-14T05:13:45;97426.84;;;15.31;57.12
68476;BME280;55464;48.266;14.188;2023-06-14T05:16:12;97433.16;;;15.28;55.16
68476;BME280;55464;48.266;14.188;2023-06-14T05:18:37;97431.91;;;15.22;54.53
68476;BME280;55464;48.266;14.188;2023-06-14T05:21:03;97434.28;;;15.23;55.44
68476;BME280;55464;48.266;14.188;2023-06-14T05:23:30;97443.47;;;15.27;55.71
68476;BME280;55464;48.266;14.188;2023-06-14T05:25:56;97434.72;;;15.25;55.83
68476;BME280;55464;48.266;14.188;2023-06-14T05:28:22;97449.81;;;15.28;55.66
68476;BME280;55464;48.266;14.188;2023-06-14T05:30:47;97445.00;;;15.25;55.41
68476;BME280;55464;48.266;14.188;2023-06-14T05:33:13;97454.59;;;15.31;56.48
68476;BME280;55464;48.266;14.188;2023-06-14T05:35:38;97450.22;;;15.30;56.39
68476;BME280;55464;48.266;14.188;2023-06-14T05:38:04;97457.78;;;15.33;56.42
68476;BME280;55464;48.266;14.188;2023-06-14T05:40:29;97456.59;;;15.34;56.46
68476;BME280;55464;48.266;14.188;2023-06-14T05:42:55;97447.50;;;15.37;56.27
68476;BME280;55464;48.266;14.188;2023-06-14T05:45:20;97446.34;;;15.42;57.67
68476;BME280;55464;48.266;14.188;2023-06-14T05:47:46;97445.19;;;15.46;57.41
68476;BME280;55464;48.266;14.188;2023-06-14T05:50:11;97452.75;;;15.53;57.70
68476;BME280;55464;48.266;14.188;2023-06-14T05:52:37;97457.19;;;15.61;56.90
68476;BME280;55464;48.266;14.188;2023-06-14T05:55:03;97459.59;;;15.63;56.91
68476;BME280;55464;48.266;14.188;2023-06-14T05:57:29;97459.63;;;15.70;57.98
68476;BME280;55464;48.266;14.188;2023-06-14T05:59:54;97464.44;;;15.73;57.69
68476;BME280;55464;48.266;14.188;2023-06-14T06:02:20;97462.91;;;15.79;56.79
68476;BME280;55464;48.266;14.188;2023-06-14T06:04:45;97459.34;;;15.82;56.71
68476;BME280;55464;48.266;14.188;2023-06-14T06:07:11;97457.38;;;15.86;56.33
68476;BME280;55464;48.266;14.188;2023-06-14T06:09:36;97460.22;;;15.94;56.53
68476;BME280;55464;48.266;14.188;2023-06-14T06:12:02;97465.44;;;16.02;56.95
68476;BME280;55464;48.266;14.188;2023-06-14T06:14:27;97459.91;;;16.10;56.15
68476;BME280;55464;48.266;14.188;2023-06-14T06:16:53;97443.56;;;15.97;55.63
68476;BME280;55464;48.266;14.188;2023-06-14T06:19:19;97471.06;;;16.17;55.95
68476;BME280;55464;48.266;14.188;2023-06-14T06:21:44;97466.69;;;16.19;56.41
68476;BME280;55464;48.266;14.188;2023-06-14T06:24:10;97469.91;;;16.25;56.60
68476;BME280;55464;48.266;14.188;2023-06-14T06:26:35;97475.91;;;16.31;56.16
68476;BME280;55464;48.266;14.188;2023-06-14T06:29:01;97471.16;;;16.35;55.62
68476;BME280;55464;48.266;14.188;2023-06-14T06:31:26;97467.19;;;16.32;55.64
68476;BME280;55464;48.266;14.188;2023-06-14T06:33:53;97469.16;;;16.39;55.30
68476;BME280;55464;48.266;14.188;2023-06-14T06:36:19;97469.16;;;16.39;55.70
68476;BME280;55464;48.266;14.188;2023-06-14T06:38:45;97471.97;;;16.46;55.23
68476;BME280;55464;48.266;14.188;2023-06-14T06:41:10;97479.94;;;16.51;55.95
68476;BME280;55464;48.266;14.188;2023-06-14T06:43:36;97472.03;;;16.50;56.33
68476;BME280;55464;48.266;14.188;2023-06-14T06:46:01;97476.00;;;16.56;55.66
68476;BME280;55464;48.266;14.188;2023-06-14T06:48:27;97482.00;;;16.65;54.88
68476;BME280;55464;48.266;14.188;2023-06-14T06:50:52;97485.59;;;16.69;55.53
68476;BME280;55464;48.266;14.188;2023-06-14T06:53:18;97475.66;;;16.72;56.50
68476;BME280;55464;48.266;14.188;2023-06-14T06:55:44;97486.41;;;16.77;56.12
68476;BME280;55464;48.266;14.188;2023-06-14T06:58:10;97486.81;;;16.79;55.53
68476;BME280;55464;48.266;14.188;2023-06-14T07:00:35;97483.25;;;16.78;55.74
68476;BME280;55464;48.266;14.188;2023-06-14T07:03:01;97492.81;;;16.88;55.52
68476;BME280;55464;48.266;14.188;2023-06-14T07:05:26;97491.25;;;16.91;55.67
68476;BME280;55464;48.266;14.188;2023-06-14T07:07:52;97482.50;;;16.89;56.13
68476;BME280;55464;48.266;14.188;2023-06-14T07:10:17;97493.66;;;16.99;55.91
68476;BME280;55464;48.266;14.188;2023-06-14T07:12:43;97498.06;;;17.04;55.51
68476;BME280;55464;48.266;14.188;2023-06-14T07:15:09;97494.88;;;17.09;53.91
68476;BME280;55464;48.266;14.188;2023-06-14T07:17:35;97494.06;;;17.09;54.55
68476;BME280;55464;48.266;14.188;2023-06-14T07:20:02;97505.22;;;17.16;54.53
68476;BME280;55464;48.266;14.188;2023-06-14T07:22:32;97502.44;;;17.19;54.79
68476;BME280;55464;48.266;14.188;2023-06-14T07:24:58;97498.47;;;17.24;55.32
68476;BME280;55464;48.266;14.188;2023-06-14T07:27:23;97496.91;;;17.30;55.95
68476;BME280;55464;48.266;14.188;2023-06-14T07:29:48;97490.91;;;17.32;55.04
68476;BME280;55464;48.266;14.188;2023-06-14T07:32:14;97490.91;;;17.35;55.23
68476;BME280;55464;48.266;14.188;2023-06-14T07:34:39;97492.50;;;17.40;53.76
68476;BME280;55464;48.266;14.188;2023-06-14T07:37:04;97494.50;;;17.39;54.11
68476;BME280;55464;48.266;14.188;2023-06-14T07:39:30;97485.75;;;17.37;55.24
68476;BME280;55464;48.266;14.188;2023-06-14T07:41:55;97496.50;;;17.46;55.67
68476;BME280;55464;48.266;14.188;2023-06-14T07:44:21;97493.31;;;17.48;54.92
68476;BME280;55464;48.266;14.188;2023-06-14T07:46:46;97494.91;;;17.49;54.70
68476;BME280;55464;48.266;14.188;2023-06-14T07:49:14;97503.25;;;17.49;55.61
68476;BME280;55464;48.266;14.188;2023-06-14T07:51:40;97503.25;;;17.56;55.49
68476;BME280;55464;48.266;14.188;2023-06-14T07:54:05;97507.66;;;17.61;54.95
68476;BME280;55464;48.266;14.188;2023-06-14T07:56:32;97500.09;;;17.65;55.29
68476;BME280;55464;48.266;14.188;2023-06-14T07:58:58;97492.09;;;17.67;54.44
68476;BME280;55464;48.266;14.188;2023-06-14T08:01:23;97498.50;;;17.74;53.96
68476;BME280;55464;48.266;14.188;2023-06-14T08:03:50;97504.06;;;17.78;54.31
68476;BME280;55464;48.266;14.188;2023-06-14T08:06:16;97495.31;;;17.80;55.45
68476;BME280;55464;48.266;14.188;2023-06-14T08:08:41;97498.88;;;17.80;54.95
68476;BME280;55464;48.266;14.188;2023-06-14T08:11:07;97501.28;;;17.82;55.10
68476;BME280;55464;48.266;14.188;2023-06-14T08:13:32;97499.28;;;17.82;53.93
68476;BME280;55464;48.266;14.188;2023-06-14T08:15:57;97504.88;;;17.93;54.61
68476;BME280;55464;48.266;14.188;2023-06-14T08:18:23;97501.69;;;17.91;54.75
68476;BME280;55464;48.266;14.188;2023-06-14T08:20:49;97506.06;;;17.99;55.11
68476;BME280;55464;48.266;14.188;2023-06-14T08:23:15;97506.44;;;18.01;54.32
68476;BME280;55464;48.266;14.188;2023-06-14T08:25:44;97499.25;;;18.04;54.10
68476;BME280;55464;48.266;14.188;2023-06-14T08:28:09;97507.63;;;18.07;55.10
68476;BME280;55464;48.266;14.188;2023-06-14T08:30:35;97508.81;;;18.10;55.25
68476;BME280;55464;48.266;14.188;2023-06-14T08:33:00;97504.44;;;18.09;53.21
68476;BME280;55464;48.266;14.188;2023-06-14T08:35:26;97506.03;;;18.17;56.38
68476;BME280;55464;48.266;14.188;2023-06-14T08:37:51;97505.22;;;18.24;55.76
68476;BME280;55464;48.266;14.188;2023-06-14T08:40:22;97514.34;;;18.28;55.47
68476;BME280;55464;48.266;14.188;2023-06-14T08:42:53;97516.34;;;18.31;54.52
68476;BME280;55464;48.266;14.188;2023-06-14T08:45:23;97513.53;;;18.35;52.47
68476;BME280;55464;48.266;14.188;2023-06-14T08:47:49;97514.34;;;18.31;52.77
68476;BME280;55464;48.266;14.188;2023-06-14T08:50:26;97517.16;;;18.28;51.16
68476;BME280;55464;48.266;14.188;2023-06-14T08:52:58;97515.16;;;18.28;51.10
68476;BME280;55464;48.266;14.188;2023-06-14T08:55:28;97512.38;;;18.32;52.41
68476;BME280;55464;48.266;14.188;2023-06-14T08:57:55;97517.94;;;18.32;51.98
68476;BME280;55464;48.266;14.188;2023-06-14T09:00:23;97513.13;;;18.40;53.65
68476;BME280;55464;48.266;14.188;2023-06-14T09:02:49;97515.91;;;18.43;53.81
68476;BME280;55464;48.266;14.188;2023-06-14T09:05:24;97512.31;;;18.46;53.32
68476;BME280;55464;48.266;14.188;2023-06-14T09:07:50;97511.50;;;18.46;52.40
68476;BME280;55464;48.266;14.188;2023-06-14T09:10:16;97519.47;;;18.51;55.23
68476;BME280;55464;48.266;14.188;2023-06-14T09:12:42;97509.88;;;18.56;53.99
68476;BME280;55464;48.266;14.188;2023-06-14T09:15:09;97507.50;;;18.54;52.69
68476;BME280;55464;48.266;14.188;2023-06-14T09:17:38;97519.41;;;18.73;54.16
68476;BME280;55464;48.266;14.188;2023-06-14T09:20:08;97510.63;;;18.70;53.90
68476;BME280;55464;48.266;14.188;2023-06-14T09:22:36;97516.16;;;18.81;56.24
68476;BME280;55464;48.266;14.188;2023-06-14T09:25:03;97514.19;;;18.85;55.71
68476;BME280;55464;48.266;14.188;2023-06-14T09:27:29;97508.97;;;18.87;54.83
68476;BME280;55464;48.266;14.188;2023-06-14T09:29:55;97508.97;;;18.91;54.03
68476;BME280;55464;48.266;14.188;2023-06-14T09:32:23;97514.47;;;19.02;52.08
68476;BME280;55464;48.266;14.188;2023-06-14T09:34:49;97515.69;;;19.01;52.24
68476;BME280;55464;48.266;14.188;2023-06-14T09:37:29;97517.66;;;19.11;55.61
68476;BME280;55464;48.266;14.188;2023-06-14T09:39:55;97514.00;;;19.18;55.83
68476;BME280;55464;48.266;14.188;2023-06-14T09:42:20;97516.75;;;19.21;53.28
68476;BME280;55464;48.266;14.188;2023-06-14T09:44:47;97507.22;;;19.19;53.06
68476;BME280;55464;48.266;14.188;2023-06-14T09:47:15;97517.13;;;19.31;52.01
68476;BME280;55464;48.266;14.188;2023-06-14T09:49:40;97509.50;;;19.35;52.66
68476;BME280;55464;48.266;14.188;2023-06-14T09:52:06;97514.28;;;19.34;53.68
68476;BME280;55464;48.266;14.188;2023-06-14T09:54:35;97520.59;;;19.45;52.52
68476;BME280;55464;48.266;14.188;2023-06-14T09:57:05;97511.03;;;19.43;51.85
68476;BME280;55464;48.266;14.188;2023-06-14T09:59:33;97511.00;;;19.46;53.64
68476;BME280;55464;48.266;14.188;2023-06-14T10:01:59;97500.22;;;19.49;53.05
68476;BME280;55464;48.266;14.188;2023-06-14T10:04:30;97515.31;;;19.58;51.78
68476;BME280;55464;48.266;14.188;2023-06-14T10:06:56;97501.38;;;19.51;51.58
68476;BME280;55464;48.266;14.188;2023-06-14T10:09:22;97495.72;;;19.62;51.13
68476;BME280;55464;48.266;14.188;2023-06-14T10:11:48;97504.09;;;19.65;53.58
68476;BME280;55464;48.266;14.188;2023-06-14T10:14:14;97509.63;;;19.73;51.55
68476;BME280;55464;48.266;14.188;2023-06-14T10:16:58;97504.44;;;19.71;52.14
68476;BME280;55464;48.266;14.188;2023-06-14T10:19:32;97503.22;;;19.76;53.56
68476;BME280;55464;48.266;14.188;2023-06-14T10:22:08;97504.78;;;19.80;52.71
68476;BME280;55464;48.266;14.188;2023-06-14T10:24:40;97502.75;;;19.85;53.73
68476;BME280;55464;48.266;14.188;2023-06-14T10:27:06;97501.91;;;19.88;51.75
68476;BME280;55464;48.266;14.188;2023-06-14T10:32:26;97500.19;;;20.01;52.28
68476;BME280;55464;48.266;14.188;2023-06-14T10:34:56;97497.78;;;20.03;51.95
68476;BME280;55464;48.266;14.188;2023-06-14T10:37:21;97501.69;;;20.13;53.54
68476;BME280;55464;48.266;14.188;2023-06-14T10:39:47;97498.81;;;20.20;50.38
68476;BME280;55464;48.266;14.188;2023-06-14T10:42:13;97502.75;;;20.23;52.11
68476;BME280;55464;48.266;14.188;2023-06-14T10:44:40;97507.13;;;20.27;49.57
68476;BME280;55464;48.266;14.188;2023-06-14T10:47:08;97505.47;;;20.30;49.85
68476;BME280;55464;48.266;14.188;2023-06-14T10:49:44;97490.34;;;20.27;50.90
68476;BME280;55464;48.266;14.188;2023-06-14T10:52:12;97491.53;;;20.26;50.87
68476;BME280;55464;48.266;14.188;2023-06-14T10:57:53;97487.78;;;20.40;49.86
68476;BME280;55464;48.266;14.188;2023-06-14T11:00:24;97505.69;;;20.50;49.74
68476;BME280;55464;48.266;14.188;2023-06-14T11:11:07;97478.13;;;20.45;48.77
68476;BME280;55464;48.266;14.188;2023-06-14T11:13:37;97473.56;;;20.58;46.16
68476;BME280;55464;48.266;14.188;2023-06-14T11:16:10;97471.16;;;20.60;50.36
68476;BME280;55464;48.266;14.188;2023-06-14T11:18:36;97475.22;;;20.55;50.24
68476;BME280;55464;48.266;14.188;2023-06-14T11:21:01;97479.25;;;20.51;49.28
68476;BME280;55464;48.266;14.188;2023-06-14T11:23:27;97472.16;;;20.43;49.36
68476;BME280;55464;48.266;14.188;2023-06-14T11:25:53;97477.00;;;20.38;49.50
68476;BME280;55464;48.266;14.188;2023-06-14T11:28:19;97481.44;;;20.36;49.38
68476;BME280;55464;48.266;14.188;2023-06-14T11:30:46;97474.66;;;20.33;49.19
68476;BME280;55464;48.266;14.188;2023-06-14T11:33:17;97478.31;;;20.30;49.81
68476;BME280;55464;48.266;14.188;2023-06-14T11:35:44;97475.97;;;20.25;49.34
68476;BME280;55464;48.266;14.188;2023-06-14T11:38:10;97476.41;;;20.20;50.18
68476;BME280;55464;48.266;14.188;2023-06-14T11:40:38;97486.34;;;20.25;50.63
68476;BME280;55464;48.266;14.188;2023-06-14T11:43:03;97482.38;;;20.22;50.34
68476;BME280;55464;48.266;14.188;2023-06-14T11:45:30;97485.22;;;20.18;50.52
68476;BME280;55464;48.266;14.188;2023-06-14T11:47:56;97483.66;;;20.14;50.45
68476;BME280;55464;48.266;14.188;2023-06-14T11:50:22;97482.91;;;20.10;50.94
68476;BME280;55464;48.266;14.188;2023-06-14T11:52:55;97490.56;;;20.06;51.83
68476;BME280;55464;48.266;14.188;2023-06-14T11:55:21;97487.78;;;20.02;53.43
68476;BME280;55464;48.266;14.188;2023-06-14T11:57:47;97491.06;;;19.97;56.40
68476;BME280;55464;48.266;14.188;2023-06-14T12:00:13;97485.94;;;19.88;58.97
68476;BME280;55464;48.266;14.188;2023-06-14T12:02:41;97496.78;;;19.79;60.06
68476;BME280;55464;48.266;14.188;2023-06-14T12:05:07;97492.47;;;19.71;60.11
68476;BME280;55464;48.266;14.188;2023-06-14T12:07:36;97501.31;;;19.62;61.69
68476;BME280;55464;48.266;14.188;2023-06-14T12:12:28;97506.19;;;19.51;63.14
68476;BME280;55464;48.266;14.188;2023-06-14T12:14:55;97506.63;;;19.45;61.60
68476;BME280;55464;48.266;14.188;2023-06-14T12:17:21;97495.50;;;19.38;60.89
68476;BME280;55464;48.266;14.188;2023-06-14T12:19:48;97509.47;;;19.38;58.74
68476;BME280;55464;48.266;14.188;2023-06-14T12:22:15;97511.94;;;19.29;59.81
68476;BME280;55464;48.266;14.188;2023-06-14T12:24:45;97505.56;;;19.29;62.04
68476;BME280;55464;48.266;14.188;2023-06-14T12:27:10;97503.22;;;19.20;61.04
68476;BME280;55464;48.266;14.188;2023-06-14T12:29:41;97507.22;;;19.19;61.06
68476;BME280;55464;48.266;14.188;2023-06-14T12:32:09;97505.63;;;19.14;60.99
68476;BME280;55464;48.266;14.188;2023-06-14T12:34:35;97502.84;;;19.14;63.08
68476;BME280;55464;48.266;14.188;2023-06-14T12:37:00;97495.28;;;19.11;63.74
68476;BME280;55464;48.266;14.188;2023-06-14T12:39:26;97508.00;;;19.16;64.38
68476;BME280;55464;48.266;14.188;2023-06-14T12:41:51;97501.22;;;19.20;64.14
68476;BME280;55464;48.266;14.188;2023-06-14T12:44:16;97496.38;;;19.24;65.20
68476;BME280;55464;48.266;14.188;2023-06-14T12:46:42;97490.41;;;19.22;65.68
68476;BME280;55464;48.266;14.188;2023-06-14T12:49:10;97493.53;;;19.32;64.33
68476;BME280;55464;48.266;14.188;2023-06-14T12:51:36;97498.31;;;19.35;63.92
68476;BME280;55464;48.266;14.188;2023-06-14T12:54:01;97501.88;;;19.39;60.74
68476;BME280;55464;48.266;14.188;2023-06-14T12:56:26;97498.25;;;19.42;58.71
68476;BME280;55464;48.266;14.188;2023-06-14T12:58:52;97497.03;;;19.46;58.98
68476;BME280;55464;48.266;14.188;2023-06-14T13:01:18;97494.59;;;19.52;58.57
68476;BME280;55464;48.266;14.188;2023-06-14T13:03:43;97502.56;;;19.54;57.12
68476;BME280;55464;48.266;14.188;2023-06-14T13:06:09;97491.34;;;19.57;58.86
68476;BME280;55464;48.266;14.188;2023-06-14T13:08:34;97504.91;;;19.62;58.58